Time;durP1;ratioP1;P1;durP2;ratioP2;P2;SDS_P1;SDS_P2;PMS_P1;PMS_P2;Temp;Humidity;BMP_temperature;BMP_pressure;BME280_temperature;BME280_humidity;BME280_pressure;Samples;Min_cycle;Max_cycle;Signal;HPM_P1;HPM_P2
2021/03/13 00:08:56;;;;;;;12.75;5.78;;;22.80;39.20;;;;;;20791713;28;20041;-23
2021/03/13 00:18:57;;;;;;;10.95;5.63;;;22.70;39.20;;;;;;20798827;28;20041;-23
2021/03/13 00:28:57;;;;;;;9.57;4.25;;;22.50;39.40;;;;;;20783781;28;20454;-19
2021/03/13 00:38:58;;;;;;;11.13;3.72;;;22.30;39.40;;;;;;20784145;28;20058;-24
2021/03/13 00:48:58;;;;;;;9.90;3.92;;;22.20;40.30;;;;;;20751499;28;20167;-18
2021/03/13 00:58:59;;;;;;;9.65;3.72;;;22.00;41.00;;;;;;20774389;28;20079;-22
2021/03/13 01:09:00;;;;;;;12.77;3.70;;;21.80;41.80;;;;;;20785930;28;20051;-19
2021/03/13 01:19:00;;;;;;;15.10;3.10;;;21.60;42.40;;;;;;20779536;28;20034;-20
2021/03/13 01:29:01;;;;;;;7.25;2.97;;;21.50;42.50;;;;;;20769515;28;20076;-20
2021/03/13 01:39:03;;;;;;;6.35;2.22;;;21.40;42.60;;;;;;20791232;28;20048;-19
2021/03/13 01:49:04;;;;;;;7.47;2.60;;;21.50;42.80;;;;;;20774954;28;20049;-21
2021/03/13 01:59:05;;;;;;;3.55;1.88;;;21.40;43.60;;;;;;20781079;28;20030;-22
2021/03/13 02:09:31;;;;;;;4.57;1.60;;;21.50;43.80;;;;;;20764206;28;20385;-24
2021/03/13 02:20:13;;;;;;;3.97;1.85;;;21.50;44.10;;;;;;20789543;28;564393;-22
2021/03/13 02:30:22;;;;;;;3.72;1.80;;;21.70;44.30;;;;;;20821915;28;20025;-23
2021/03/13 02:40:26;;;;;;;5.20;1.65;;;21.60;44.20;;;;;;20832499;28;20022;-23
2021/03/13 02:50:30;;;;;;;5.85;1.75;;;21.60;44.30;;;;;;20823146;28;20035;-18
2021/03/13 03:00:35;;;;;;;3.50;1.52;;;21.60;44.30;;;;;;20838744;28;20386;-21
2021/03/13 03:10:39;;;;;;;3.25;1.10;;;21.70;44.20;;;;;;20834972;28;20025;-24
2021/03/13 03:20:42;;;;;;;5.85;1.40;;;21.60;44.10;;;;;;20829233;28;20162;-20
2021/03/13 03:30:43;;;;;;;2.00;0.77;;;21.70;43.90;;;;;;20834780;28;20022;-20
2021/03/13 03:40:44;;;;;;;2.13;1.20;;;21.70;44.00;;;;;;20833310;28;20092;-22
2021/03/13 03:50:45;;;;;;;2.75;0.90;;;21.70;43.60;;;;;;20833783;28;20033;-24
2021/03/13 04:00:47;;;;;;;5.60;0.85;;;21.70;43.70;;;;;;20841386;28;20053;-21
2021/03/13 04:10:51;;;;;;;2.25;0.80;;;21.80;43.50;;;;;;20831382;28;20026;-24
2021/03/13 04:20:52;;;;;;;4.93;1.30;;;21.70;43.50;;;;;;20831790;28;20060;-23
2021/03/13 04:30:53;;;;;;;4.53;0.82;;;21.80;43.30;;;;;;20821895;28;20025;-21
2021/03/13 04:40:54;;;;;;;2.33;0.88;;;21.80;43.20;;;;;;20827570;28;20117;-21
2021/03/13 04:51:00;;;;;;;3.75;0.65;;;21.80;43.10;;;;;;20829681;28;20103;-19
2021/03/13 05:01:01;;;;;;;2.35;0.63;;;21.80;43.00;;;;;;20802409;28;20025;-21
2021/03/13 05:11:01;;;;;;;2.80;0.93;;;21.70;42.90;;;;;;20815130;28;20029;-24
2021/03/13 05:21:02;;;;;;;3.17;0.80;;;21.80;42.80;;;;;;20837859;23;20652;-21
2021/03/13 05:31:03;;;;;;;1.33;0.50;;;21.70;42.70;;;;;;20825526;28;20042;-21
2021/03/13 05:41:04;;;;;;;1.05;0.32;;;21.70;42.60;;;;;;20829729;28;20544;-30
2021/03/13 05:51:05;;;;;;;3.08;0.50;;;21.80;42.70;;;;;;20841844;28;20028;-20
2021/03/13 06:01:06;;;;;;;0.80;0.35;;;21.80;42.40;;;;;;20840756;28;20072;-21
2021/03/13 06:11:07;;;;;;;1.30;0.30;;;21.70;42.50;;;;;;20828817;28;20037;-22
2021/03/13 06:21:26;;;;;;;2.13;0.30;;;21.80;42.30;;;;;;20831918;28;20059;-21
2021/03/13 06:31:28;;;;;;;0.88;0.30;;;21.70;42.30;;;;;;20832231;28;20018;-22
2021/03/13 06:41:28;;;;;;;1.70;0.30;;;21.70;42.20;;;;;;20823401;28;20520;-20
2021/03/13 06:51:29;;;;;;;0.98;0.38;;;21.70;41.90;;;;;;20811619;28;20025;-19
2021/03/13 07:01:31;;;;;;;1.90;0.30;;;21.60;41.90;;;;;;20815313;28;20038;-20
2021/03/13 07:11:33;;;;;;;2.28;0.40;;;21.70;41.80;;;;;;20820399;28;20037;-20
2021/03/13 07:21:36;;;;;;;8.75;0.50;;;21.70;41.90;;;;;;20815423;28;20029;-19
2021/03/13 07:31:46;;;;;;;2.38;0.50;;;21.70;41.90;;;;;;20807106;28;20100;-20
2021/03/13 07:42:10;;;;;;;16.77;1.30;;;21.70;42.00;;;;;;20802212;28;20390;-20
2021/03/13 07:52:12;;;;;;;1.92;0.30;;;21.60;42.00;;;;;;20813446;28;20037;-19
2021/03/13 08:02:31;;;;;;;3.78;0.57;;;21.70;41.90;;;;;;20809847;28;20022;-20
2021/03/13 08:12:39;;;;;;;3.30;0.40;;;21.60;41.90;;;;;;20800474;28;20033;-21
2021/03/13 08:22:41;;;;;;;5.47;0.40;;;21.80;41.70;;;;;;20817590;28;20133;-20
2021/03/13 08:33:08;;;;;;;3.67;0.38;;;21.80;41.70;;;;;;20822159;28;20029;-21
2021/03/13 08:43:35;;;;;;;5.05;0.95;;;21.80;41.80;;;;;;20810926;28;21314;-19
2021/03/13 08:53:38;;;;;;;12.77;1.00;;;22.00;41.40;;;;;;20810172;28;20433;-19
2021/03/13 09:03:52;;;;;;;25.02;4.18;;;22.30;41.00;;;;;;20809643;28;20033;-19
2021/03/13 09:14:03;;;;;;;18.48;3.33;;;22.30;41.50;;;;;;20820077;28;20041;-22
2021/03/13 09:24:05;;;;;;;13.48;3.35;;;22.50;41.00;;;;;;20830929;28;20125;-21
2021/03/13 09:34:17;;;;;;;19.08;3.65;;;22.40;40.90;;;;;;20831352;28;20033;-21
2021/03/13 09:44:30;;;;;;;16.63;2.80;;;22.50;40.90;;;;;;20798942;28;20113;-21
2021/03/13 09:54:31;;;;;;;11.23;2.03;;;22.40;41.20;;;;;;20823322;28;20025;-19
2021/03/13 10:04:32;;;;;;;19.67;2.37;;;22.20;41.30;;;;;;20822255;28;20044;-19
2021/03/13 10:14:38;;;;;;;10.45;2.97;;;22.20;41.20;;;;;;20819319;28;20476;-20
2021/03/13 10:24:48;;;;;;;6.70;1.48;;;22.30;41.20;;;;;;20820320;28;20066;-19
2021/03/13 10:35:04;;;;;;;8.75;1.92;;;22.70;40.50;;;;;;20809120;28;20072;-20
2021/03/13 10:45:13;;;;;;;5.90;1.35;;;23.40;39.70;;;;;;20820910;28;20029;-22
2021/03/13 10:55:14;;;;;;;10.25;1.65;;;23.80;39.00;;;;;;20830231;28;20072;-22
2021/03/13 11:05:14;;;;;;;8.00;1.75;;;23.80;39.10;;;;;;20837230;28;20025;-21
2021/03/13 11:15:15;;;;;;;11.27;1.95;;;23.70;39.50;;;;;;20839917;28;20048;-20
2021/03/13 11:25:16;;;;;;;8.35;1.90;;;23.60;39.80;;;;;;20867929;23;20068;-22
2021/03/13 11:35:20;;;;;;;23.55;2.95;;;23.40;40.00;;;;;;20873234;28;20033;-26
2021/03/13 11:45:22;;;;;;;7.75;1.88;;;23.30;40.50;;;;;;20879651;28;20040;-25
2021/03/13 11:55:24;;;;;;;16.08;1.85;;;23.20;40.40;;;;;;20804822;28;20026;-25
2021/03/13 12:05:24;;;;;;;7.28;1.90;;;23.10;40.90;;;;;;20758333;28;20026;-22
2021/03/13 12:15:25;;;;;;;17.90;4.90;;;23.00;40.70;;;;;;20762103;28;20087;-24
2021/03/13 12:25:26;;;;;;;40.25;5.03;;;23.10;39.90;;;;;;20794087;28;20485;-24
2021/03/13 12:35:27;;;;;;;17.93;3.40;;;23.20;39.90;;;;;;20797498;28;20065;-21
2021/03/13 12:45:27;;;;;;;8.20;2.70;;;23.20;38.20;;;;;;20827928;28;20038;-23
2021/03/13 12:55:28;;;;;;;10.10;3.20;;;23.10;38.20;;;;;;20809175;28;20147;-24
2021/03/13 13:05:28;;;;;;;12.23;4.10;;;23.30;38.30;;;;;;20825110;28;20044;-23
2021/03/13 13:15:29;;;;;;;10.88;3.33;;;23.00;38.50;;;;;;20789722;28;20465;-23
2021/03/13 13:25:30;;;;;;;18.87;5.70;;;23.30;38.50;;;;;;20781408;28;20398;-23
2021/03/13 13:35:32;;;;;;;9.43;3.78;;;23.20;38.90;;;;;;20780979;28;20030;-23
2021/03/13 13:45:33;;;;;;;6.85;2.28;;;23.20;38.90;;;;;;20779994;28;20030;-22
2021/03/13 13:55:34;;;;;;;7.60;3.17;;;23.20;39.00;;;;;;20779187;28;20032;-24
2021/03/13 14:05:35;;;;;;;7.35;3.10;;;23.20;39.00;;;;;;20759988;28;20022;-23
2021/03/13 14:15:35;;;;;;;6.88;2.10;;;23.20;39.20;;;;;;20777633;28;20033;-23
2021/03/13 14:25:36;;;;;;;11.10;2.70;;;23.30;39.30;;;;;;20780843;28;20152;-22
2021/03/13 14:35:36;;;;;;;9.27;2.53;;;23.20;40.20;;;;;;20781460;28;20109;-21
2021/03/13 14:45:37;;;;;;;11.32;2.83;;;23.30;39.60;;;;;;20739925;28;20049;-22
2021/03/13 14:55:37;;;;;;;8.73;2.20;;;23.20;39.80;;;;;;20736078;28;20411;-25
2021/03/13 15:05:38;;;;;;;14.57;3.83;;;23.30;39.70;;;;;;20757037;28;20061;-22
2021/03/13 15:15:39;;;;;;;9.00;2.20;;;23.30;40.10;;;;;;20741127;28;20030;-23
2021/03/13 15:25:40;;;;;;;10.88;2.13;;;23.30;39.90;;;;;;20754655;28;20064;-23
2021/03/13 15:35:41;;;;;;;6.32;1.67;;;23.40;39.80;;;;;;20753431;28;20089;-24
2021/03/13 15:45:42;;;;;;;9.38;2.15;;;23.20;39.80;;;;;;20815589;28;20034;-25
2021/03/13 15:55:42;;;;;;;5.70;1.90;;;23.10;40.00;;;;;;20830427;28;20080;-20
2021/03/13 16:05:43;;;;;;;6.82;1.40;;;23.10;39.90;;;;;;20799005;28;20029;-22
2021/03/13 16:15:43;;;;;;;4.85;1.88;;;23.10;40.10;;;;;;20779048;28;20033;-22
2021/03/13 16:25:44;;;;;;;6.78;1.42;;;23.20;40.40;;;;;;20760025;28;20056;-23
2021/03/13 16:35:45;;;;;;;5.97;1.80;;;23.20;40.60;;;;;;20826846;28;20025;-23
2021/03/13 16:45:45;;;;;;;7.63;1.40;;;23.30;40.40;;;;;;20768412;28;20057;-22
2021/03/13 16:55:46;;;;;;;8.23;1.45;;;23.30;40.50;;;;;;20751544;28;20493;-21
2021/03/13 17:05:46;;;;;;;8.25;1.60;;;23.40;40.40;;;;;;20807632;28;20450;-25
2021/03/13 17:15:48;;;;;;;6.15;1.13;;;23.30;40.50;;;;;;20810803;28;20064;-25
2021/03/13 17:25:48;;;;;;;5.30;1.30;;;23.20;40.70;;;;;;20788957;23;20058;-23
2021/03/13 17:35:51;;;;;;;3.00;0.75;;;23.20;40.60;;;;;;20740637;28;20036;-22
2021/03/13 17:45:52;;;;;;;5.97;1.77;;;23.00;40.60;;;;;;20741254;28;20113;-20
2021/03/13 17:55:53;;;;;;;7.30;1.38;;;23.00;40.30;;;;;;20742091;28;20092;-21
2021/03/13 18:05:54;;;;;;;9.80;3.40;;;23.00;40.60;;;;;;20725763;28;20030;-22
2021/03/13 18:15:55;;;;;;;7.17;0.90;;;23.20;40.50;;;;;;20731817;28;20049;-20
2021/03/13 18:25:56;;;;;;;5.68;1.42;;;23.30;40.60;;;;;;20727579;28;20476;-23
2021/03/13 18:35:57;;;;;;;6.18;1.50;;;23.30;40.70;;;;;;20718028;28;20037;-22
2021/03/13 18:45:57;;;;;;;7.07;1.38;;;23.30;40.90;;;;;;20723475;28;20130;-19
2021/03/13 18:55:58;;;;;;;6.28;1.50;;;23.30;41.00;;;;;;20719206;28;20244;-21
2021/03/13 19:05:59;;;;;;;8.67;1.50;;;23.30;41.30;;;;;;20723888;28;20030;-23
2021/03/13 19:15:59;;;;;;;8.60;1.63;;;23.40;41.60;;;;;;20736650;28;20468;-20
2021/03/13 19:26:00;;;;;;;7.60;1.45;;;23.30;41.90;;;;;;20737657;28;20405;-22
2021/03/13 19:36:00;;;;;;;4.07;1.27;;;23.30;41.50;;;;;;20736824;28;20030;-22
2021/03/13 19:46:01;;;;;;;8.13;1.52;;;23.20;41.40;;;;;;20733677;28;20491;-20
2021/03/13 19:56:02;;;;;;;3.90;1.40;;;23.30;41.00;;;;;;20736634;28;20030;-22
2021/03/13 20:06:03;;;;;;;10.13;1.70;;;23.30;41.50;;;;;;20732460;28;20040;-20
2021/03/13 20:16:05;;;;;;;4.72;1.70;;;23.40;41.30;;;;;;20732289;28;20034;-22
2021/03/13 20:26:05;;;;;;;4.78;1.15;;;23.40;41.50;;;;;;20739694;28;20053;-21
2021/03/13 20:36:08;;;;;;;4.05;1.00;;;23.40;41.40;;;;;;20748275;28;20086;-23
2021/03/13 20:46:09;;;;;;;3.85;0.90;;;23.20;41.70;;;;;;20742892;28;20026;-22
2021/03/13 20:56:09;;;;;;;8.02;1.55;;;23.10;42.00;;;;;;20738655;28;20478;-20
2021/03/13 21:06:10;;;;;;;6.50;1.30;;;23.10;41.80;;;;;;20678651;28;20046;-22
2021/03/13 21:16:10;;;;;;;5.38;0.90;;;23.00;42.00;;;;;;20663492;28;20033;-22
2021/03/13 21:26:11;;;;;;;3.38;0.82;;;23.10;41.90;;;;;;20654980;28;20037;-23
2021/03/13 21:36:11;;;;;;;3.90;1.67;;;22.90;42.20;;;;;;20660221;28;20069;-21
2021/03/13 21:46:12;;;;;;;2.45;0.40;;;23.00;41.90;;;;;;20671582;28;20507;-20
2021/03/13 21:56:13;;;;;;;4.30;0.50;;;22.90;42.20;;;;;;20666966;28;20376;-20
2021/03/13 22:06:13;;;;;;;2.55;0.88;;;22.90;41.80;;;;;;20676280;28;20103;-22
2021/03/13 22:16:14;;;;;;;4.20;0.80;;;22.90;42.00;;;;;;20677817;28;20030;-21
2021/03/13 22:26:14;;;;;;;2.90;0.60;;;22.90;41.90;;;;;;20659242;28;20109;-22
2021/03/13 22:36:15;;;;;;;2.63;0.50;;;22.70;42.00;;;;;;20666748;28;21045;-20
2021/03/13 22:46:15;;;;;;;3.20;0.60;;;22.60;42.20;;;;;;20661089;28;20053;-21
2021/03/13 22:56:16;;;;;;;2.05;0.50;;;22.30;42.20;;;;;;20673674;28;20105;-23
2021/03/13 23:06:16;;;;;;;3.75;1.27;;;22.40;42.20;;;;;;20674321;28;20050;-22
2021/03/13 23:16:17;;;;;;;0.88;0.28;;;22.20;42.30;;;;;;20617953;28;20030;-23
2021/03/13 23:26:18;;;;;;;1.00;0.40;;;22.10;42.70;;;;;;20587563;28;20019;-20
2021/03/13 23:36:19;;;;;;;1.80;0.47;;;22.00;42.90;;;;;;20595458;28;20027;-20
2021/03/13 23:46:19;;;;;;;2.15;0.52;;;21.90;43.00;;;;;;20616338;28;20035;-21
2021/03/13 23:56:20;;;;;;;2.63;0.40;;;21.80;43.10;;;;;;20599514;28;20591;-20
